Time;durP1;ratioP1;P1;durP2;ratioP2;P2;SDS_P1;SDS_P2;PMS_P1;PMS_P2;Temp;Humidity;BMP_temperature;BMP_pressure;BME280_temperature;BME280_humidity;BME280_pressure;Samples;Min_cycle;Max_cycle;Signal;HPM_P1;HPM_P2
2023/05/31 00:01:10;;;;;;;31.25;12.52;;;;;;;;;;6310845;28;20040;-57
2023/05/31 00:04:11;;;;;;;36.30;13.40;;;;;;;;;;6310858;28;20135;-56
2023/05/31 00:07:11;;;;;;;30.38;12.75;;;;;;;;;;6306782;28;20051;-58
2023/05/31 00:10:12;;;;;;;37.05;12.88;;;;;;;;;;6315032;28;20050;-56
2023/05/31 00:13:13;;;;;;;39.17;14.05;;;;;;;;;;6311567;28;20051;-57
2023/05/31 00:16:14;;;;;;;38.80;14.65;;;;;;;;;;6308041;28;20050;-57
2023/05/31 00:19:14;;;;;;;40.00;13.80;;;;;;;;;;6307780;28;20036;-52
2023/05/31 00:22:16;;;;;;;29.80;14.15;;;;;;;;;;6309773;28;20044;-59
2023/05/31 00:25:17;;;;;;;33.83;13.55;;;;;;;;;;6309751;28;20044;-58
2023/05/31 00:28:18;;;;;;;30.45;13.27;;;;;;;;;;6308847;28;20636;-48
2023/05/31 00:31:18;;;;;;;36.65;13.52;;;;;;;;;;6309063;28;20066;-57
2023/05/31 00:34:19;;;;;;;40.00;13.70;;;;;;;;;;6312307;28;20498;-58
2023/05/31 00:37:20;;;;;;;47.03;15.05;;;;;;;;;;6308506;28;20040;-59
2023/05/31 00:40:21;;;;;;;38.22;14.15;;;;;;;;;;6293284;28;20040;-53
2023/05/31 00:43:21;;;;;;;33.70;12.77;;;;;;;;;;6310129;28;20475;-50
2023/05/31 00:46:29;;;;;;;35.20;13.55;;;;;;;;;;6307756;28;20392;-51
2023/05/31 00:49:30;;;;;;;27.58;12.23;;;;;;;;;;6299192;28;20036;-59
2023/05/31 00:52:33;;;;;;;29.95;12.52;;;;;;;;;;6311328;28;20552;-46
2023/05/31 00:55:35;;;;;;;31.67;13.10;;;;;;;;;;6310935;28;20075;-49
2023/05/31 00:58:37;;;;;;;32.30;13.95;;;;;;;;;;6308634;28;20118;-58
2023/05/31 01:01:37;;;;;;;43.17;14.70;;;;;;;;;;6309116;28;20076;-51
2023/05/31 01:04:39;;;;;;;42.55;14.75;;;;;;;;;;6307935;28;20071;-58
2023/05/31 01:07:39;;;;;;;40.93;14.07;;;;;;;;;;6306489;28;20085;-54
2023/05/31 01:10:41;;;;;;;30.77;13.07;;;;;;;;;;6307791;28;20068;-58
2023/05/31 01:13:58;;;;;;;31.70;13.50;;;;;;;;;;6309160;28;20043;-56
2023/05/31 01:17:20;;;;;;;31.60;12.63;;;;;;;;;;6305222;28;20126;-56
2023/05/31 01:20:24;;;;;;;34.80;13.88;;;;;;;;;;6308052;28;20086;-57
2023/05/31 01:23:37;;;;;;;31.77;12.77;;;;;;;;;;6308313;28;20109;-58
2023/05/31 01:26:46;;;;;;;30.27;12.10;;;;;;;;;;6310883;28;20044;-58
2023/05/31 01:29:49;;;;;;;29.38;11.80;;;;;;;;;;6307277;28;20183;-55
2023/05/31 01:32:51;;;;;;;27.23;11.95;;;;;;;;;;6308166;28;20040;-55
2023/05/31 01:35:51;;;;;;;30.70;11.95;;;;;;;;;;6311620;28;20114;-55
2023/05/31 01:38:52;;;;;;;27.42;11.98;;;;;;;;;;6310518;28;20052;-58
2023/05/31 01:41:55;;;;;;;32.40;12.57;;;;;;;;;;6307224;28;20477;-56
2023/05/31 01:44:57;;;;;;;33.55;13.70;;;;;;;;;;6309718;28;20055;-52
2023/05/31 01:48:03;;;;;;;29.77;13.07;;;;;;;;;;6306332;28;20123;-56
2023/05/31 01:51:06;;;;;;;31.63;12.68;;;;;;;;;;6306820;28;20134;-58
2023/05/31 01:54:07;;;;;;;36.95;12.95;;;;;;;;;;6307408;28;20075;-58
2023/05/31 01:57:09;;;;;;;29.75;13.20;;;;;;;;;;6307796;28;20101;-54
2023/05/31 02:00:11;;;;;;;26.20;12.10;;;;;;;;;;6305524;28;20491;-55
2023/05/31 02:03:12;;;;;;;;;;;;;;;;;;6305825;28;20112;-56
2023/05/31 02:06:13;;;;;;;27.20;11.65;;;;;;;;;;6306933;28;19997;-54
2023/05/31 02:09:14;;;;;;;34.22;12.55;;;;;;;;;;6307525;28;20040;-58
2023/05/31 02:12:14;;;;;;;33.75;13.00;;;;;;;;;;6309595;28;20132;-50
2023/05/31 02:15:15;;;;;;;28.50;12.45;;;;;;;;;;6308308;28;20495;-57
2023/05/31 02:18:17;;;;;;;26.77;12.47;;;;;;;;;;6311752;28;20139;-55
2023/05/31 02:21:17;;;;;;;31.08;13.02;;;;;;;;;;6308357;28;20056;-56
2023/05/31 02:24:18;;;;;;;30.02;12.35;;;;;;;;;;6308679;28;20040;-59
2023/05/31 02:27:18;;;;;;;31.35;12.52;;;;;;;;;;6307178;28;20483;-55
2023/05/31 02:30:20;;;;;;;30.35;12.20;;;;;;;;;;6310728;28;20055;-59
2023/05/31 02:33:20;;;;;;;35.33;11.93;;;;;;;;;;6307021;28;20510;-47
2023/05/31 02:36:21;;;;;;;26.40;11.20;;;;;;;;;;6307009;28;20064;-58
2023/05/31 02:39:22;;;;;;;35.65;12.30;;;;;;;;;;6307024;28;20096;-58
2023/05/31 02:42:22;;;;;;;33.38;12.30;;;;;;;;;;6307656;28;20051;-57
2023/05/31 02:45:23;;;;;;;33.67;12.50;;;;;;;;;;6305970;28;20032;-50
2023/05/31 02:48:24;;;;;;;27.00;12.10;;;;;;;;;;6306107;28;20044;-54
2023/05/31 02:51:24;;;;;;;27.83;11.27;;;;;;;;;;6304163;28;20044;-55
2023/05/31 02:54:25;;;;;;;29.88;11.27;;;;;;;;;;6306594;28;20489;-54
2023/05/31 02:57:25;;;;;;;31.33;12.23;;;;;;;;;;6304445;28;20052;-56
2023/05/31 03:00:26;;;;;;;28.45;10.85;;;;;;;;;;6308190;28;20430;-56
2023/05/31 03:03:27;;;;;;;29.10;12.52;;;;;;;;;;6303872;28;20060;-54
2023/05/31 03:06:28;;;;;;;29.60;11.85;;;;;;;;;;6306317;28;20048;-47
2023/05/31 03:09:28;;;;;;;30.83;11.93;;;;;;;;;;6308434;28;20093;-54
2023/05/31 03:12:30;;;;;;;32.92;12.10;;;;;;;;;;6309859;28;20044;-54
2023/05/31 03:15:31;;;;;;;32.28;12.48;;;;;;;;;;6310069;28;20047;-58
2023/05/31 03:18:31;;;;;;;31.60;12.23;;;;;;;;;;6311300;28;20044;-49
2023/05/31 03:21:32;;;;;;;32.30;11.82;;;;;;;;;;6312423;28;20419;-59
2023/05/31 03:24:33;;;;;;;32.28;11.77;;;;;;;;;;6309943;28;20497;-53
2023/05/31 03:27:34;;;;;;;34.90;12.13;;;;;;;;;;6311943;28;20048;-54
2023/05/31 03:30:34;;;;;;;31.58;12.38;;;;;;;;;;6308038;28;20047;-53
2023/05/31 03:33:36;;;;;;;32.75;12.30;;;;;;;;;;6304987;28;20060;-53
2023/05/31 03:36:37;;;;;;;34.58;12.23;;;;;;;;;;6306271;28;20131;-50
2023/05/31 03:39:38;;;;;;;37.38;13.55;;;;;;;;;;6307278;28;20051;-55
2023/05/31 03:42:38;;;;;;;34.33;12.40;;;;;;;;;;6307061;28;20064;-54
2023/05/31 03:45:40;;;;;;;36.75;13.32;;;;;;;;;;6302145;28;20040;-50
2023/05/31 03:48:41;;;;;;;32.03;12.63;;;;;;;;;;6304882;28;20087;-50
2023/05/31 03:51:41;;;;;;;32.58;12.05;;;;;;;;;;6304211;28;20029;-53
2023/05/31 03:54:42;;;;;;;36.30;13.35;;;;;;;;;;6305693;28;20052;-49
2023/05/31 03:57:42;;;;;;;36.85;13.98;;;;;;;;;;6308170;28;20135;-54
2023/05/31 04:00:43;;;;;;;35.05;13.98;;;;;;;;;;6309736;28;20052;-50
2023/05/31 04:03:44;;;;;;;40.97;13.35;;;;;;;;;;6306648;28;20141;-56
2023/05/31 04:06:45;;;;;;;39.72;14.18;;;;;;;;;;6306304;28;20131;-51
2023/05/31 04:09:45;;;;;;;37.83;14.40;;;;;;;;;;6308040;28;20043;-59
2023/05/31 04:12:49;;;;;;;36.38;14.98;;;;;;;;;;6306090;28;20770;-54
2023/05/31 04:15:49;;;;;;;41.70;14.60;;;;;;;;;;6300595;28;20083;-53
2023/05/31 04:18:50;;;;;;;39.90;15.00;;;;;;;;;;6305031;28;20052;-55
2023/05/31 04:21:51;;;;;;;37.88;15.07;;;;;;;;;;6304622;28;20089;-52
2023/05/31 04:24:52;;;;;;;44.20;14.68;;;;;;;;;;6308326;28;20146;-54
2023/05/31 04:27:53;;;;;;;39.13;14.32;;;;;;;;;;6311914;28;20783;-48
2023/05/31 04:30:56;;;;;;;48.92;15.57;;;;;;;;;;6314436;28;20044;-55
2023/05/31 04:33:59;;;;;;;;;;;;;;;;;;6310067;28;20077;-52
2023/05/31 04:37:02;;;;;;;40.13;14.68;;;;;;;;;;6311411;28;20448;-47
2023/05/31 04:40:05;;;;;;;36.65;13.57;;;;;;;;;;6311346;28;20052;-52
2023/05/31 04:43:06;;;;;;;40.22;15.05;;;;;;;;;;6307861;28;20073;-59
2023/05/31 04:46:09;;;;;;;38.83;14.32;;;;;;;;;;6308249;28;20074;-54
2023/05/31 04:49:10;;;;;;;34.85;12.85;;;;;;;;;;6307660;28;20479;-51
2023/05/31 04:52:11;;;;;;;30.98;12.20;;;;;;;;;;6304201;28;20043;-58
2023/05/31 04:55:11;;;;;;;32.67;11.00;;;;;;;;;;6288322;28;20051;-54
2023/05/31 04:58:12;;;;;;;36.55;11.93;;;;;;;;;;6295793;28;20041;-52
2023/05/31 05:01:14;;;;;;;30.92;10.35;;;;;;;;;;6295669;28;20602;-56
2023/05/31 05:04:15;;;;;;;30.80;10.52;;;;;;;;;;6293275;28;20388;-57
2023/05/31 05:07:16;;;;;;;29.13;10.07;;;;;;;;;;6293038;28;20040;-58
2023/05/31 05:10:16;;;;;;;31.70;11.10;;;;;;;;;;6291345;28;20045;-55
2023/05/31 05:13:17;;;;;;;33.38;11.02;;;;;;;;;;6292726;28;20518;-50
2023/05/31 05:16:18;;;;;;;24.77;10.77;;;;;;;;;;6291045;28;20615;-59
2023/05/31 05:19:18;;;;;;;24.80;10.45;;;;;;;;;;6292226;28;20123;-58
2023/05/31 05:22:19;;;;;;;32.95;10.98;;;;;;;;;;6292856;28;20036;-55
2023/05/31 05:25:21;;;;;;;28.25;10.88;;;;;;;;;;6296462;28;20765;-57
2023/05/31 05:28:22;;;;;;;30.88;11.55;;;;;;;;;;6290765;28;20052;-54
2023/05/31 05:31:22;;;;;;;35.37;12.50;;;;;;;;;;6297841;28;20076;-56
2023/05/31 05:34:23;;;;;;;36.17;13.63;;;;;;;;;;6295126;28;20060;-51
2023/05/31 05:37:24;;;;;;;39.13;13.00;;;;;;;;;;6292978;28;20491;-58
2023/05/31 05:40:24;;;;;;;27.98;12.52;;;;;;;;;;6295316;28;20735;-59
2023/05/31 05:43:25;;;;;;;46.28;12.95;;;;;;;;;;6291332;28;20430;-53
2023/05/31 05:46:26;;;;;;;28.65;12.73;;;;;;;;;;6290508;28;20538;-55
2023/05/31 05:49:26;;;;;;;31.92;11.15;;;;;;;;;;6295429;28;20478;-53
2023/05/31 05:52:27;;;;;;;27.85;10.73;;;;;;;;;;6292407;28;20052;-59
2023/05/31 05:55:28;;;;;;;27.58;11.18;;;;;;;;;;6292823;28;20064;-59
2023/05/31 05:58:28;;;;;;;29.80;11.27;;;;;;;;;;6294205;28;20472;-58
2023/05/31 06:01:29;;;;;;;32.28;10.45;;;;;;;;;;6295214;28;20552;-59
2023/05/31 06:04:29;;;;;;;31.17;10.32;;;;;;;;;;6292086;28;20106;-59
2023/05/31 06:07:30;;;;;;;32.47;10.23;;;;;;;;;;6291472;28;20043;-54
2023/05/31 06:10:30;;;;;;;30.63;10.20;;;;;;;;;;6292803;28;20055;-59
2023/05/31 06:13:31;;;;;;;29.45;10.27;;;;;;;;;;6292047;28;20109;-57
2023/05/31 06:16:32;;;;;;;36.80;10.43;;;;;;;;;;6294670;28;21538;-58
2023/05/31 06:19:33;;;;;;;25.08;9.82;;;;;;;;;;6293230;28;20529;-57
2023/05/31 06:22:33;;;;;;;41.55;10.80;;;;;;;;;;6288104;28;20876;-51
2023/05/31 06:25:35;;;;;;;33.72;10.05;;;;;;;;;;6291334;28;20086;-52
2023/05/31 06:28:36;;;;;;;28.80;9.93;;;;;;;;;;6294407;28;20052;-59
2023/05/31 06:31:38;;;;;;;29.47;8.83;;;;;;;;;;6291737;28;20072;-59
2023/05/31 06:34:39;;;;;;;24.20;8.68;;;;;;;;;;6278234;28;20065;-48
2023/05/31 06:37:40;;;;;;;26.80;8.13;;;;;;;;;;6292706;28;20070;-57
2023/05/31 06:40:42;;;;;;;25.15;7.75;;;;;;;;;;6293408;28;20464;-59
2023/05/31 06:43:43;;;;;;;23.02;8.00;;;;;;;;;;6293401;28;20543;-52
2023/05/31 06:46:43;;;;;;;18.17;7.20;;;;;;;;;;6292669;28;20037;-54
2023/05/31 06:49:44;;;;;;;21.42;7.25;;;;;;;;;;6294359;28;20044;-49
2023/05/31 06:52:45;;;;;;;20.88;7.93;;;;;;;;;;6289006;28;20054;-49
2023/05/31 06:55:45;;;;;;;23.20;7.10;;;;;;;;;;6293499;28;20058;-52
2023/05/31 06:58:46;;;;;;;16.37;6.20;;;;;;;;;;6293958;28;20051;-55
2023/05/31 07:01:47;;;;;;;18.40;6.63;;;;;;;;;;6296415;28;20168;-60
2023/05/31 07:04:47;;;;;;;23.53;6.87;;;;;;;;;;6293423;28;20056;-52
2023/05/31 07:07:48;;;;;;;22.98;7.68;;;;;;;;;;6292865;28;20139;-54
2023/05/31 07:10:48;;;;;;;19.92;6.63;;;;;;;;;;6290897;28;20050;-56
2023/05/31 07:13:49;;;;;;;22.45;6.63;;;;;;;;;;6289764;28;20430;-54
2023/05/31 07:16:50;;;;;;;20.00;5.90;;;;;;;;;;6291937;28;20037;-55
2023/05/31 07:19:51;;;;;;;16.30;6.67;;;;;;;;;;6293346;28;20048;-58
2023/05/31 07:22:51;;;;;;;20.27;6.60;;;;;;;;;;6291997;28;20496;-54
2023/05/31 07:25:52;;;;;;;20.42;5.97;;;;;;;;;;6289455;28;20804;-58
2023/05/31 07:28:53;;;;;;;19.58;6.80;;;;;;;;;;6293415;28;20052;-49
2023/05/31 07:31:53;;;;;;;16.67;7.03;;;;;;;;;;6293011;28;21699;-52
2023/05/31 07:34:54;;;;;;;16.90;6.40;;;;;;;;;;6292171;28;20938;-58
2023/05/31 07:37:55;;;;;;;21.63;6.80;;;;;;;;;;6293731;28;20040;-58
2023/05/31 07:40:56;;;;;;;24.13;7.47;;;;;;;;;;6295313;28;20096;-58
2023/05/31 07:43:56;;;;;;;18.90;6.67;;;;;;;;;;6292762;28;20453;-57
2023/05/31 07:46:57;;;;;;;19.40;6.10;;;;;;;;;;6287695;28;20360;-53
2023/05/31 07:49:58;;;;;;;22.93;7.80;;;;;;;;;;6291565;28;20048;-53
2023/05/31 07:52:58;;;;;;;16.30;6.40;;;;;;;;;;6291011;28;20049;-58
2023/05/31 07:55:59;;;;;;;24.43;6.50;;;;;;;;;;6293991;28;20044;-53
2023/05/31 07:59:00;;;;;;;17.33;6.20;;;;;;;;;;6300578;28;20727;-53
2023/05/31 08:02:01;;;;;;;18.47;6.57;;;;;;;;;;6293995;28;20095;-50
2023/05/31 08:05:04;;;;;;;14.20;6.03;;;;;;;;;;6294214;28;20052;-59
2023/05/31 08:08:05;;;;;;;17.42;5.90;;;;;;;;;;6298800;28;20049;-58
2023/05/31 08:11:06;;;;;;;18.05;7.18;;;;;;;;;;6293955;28;20054;-54
2023/05/31 08:14:07;;;;;;;18.87;6.47;;;;;;;;;;6294962;28;20384;-59
2023/05/31 08:17:08;;;;;;;16.13;5.30;;;;;;;;;;6294860;28;20945;-53
2023/05/31 08:20:13;;;;;;;15.47;5.77;;;;;;;;;;6292262;28;20461;-52
2023/05/31 08:23:21;;;;;;;19.80;6.00;;;;;;;;;;6300574;28;20048;-56
2023/05/31 08:26:22;;;;;;;19.17;5.80;;;;;;;;;;6297661;28;20106;-58
2023/05/31 08:29:22;;;;;;;18.67;5.90;;;;;;;;;;6298812;28;20470;-54
2023/05/31 08:32:23;;;;;;;23.17;5.63;;;;;;;;;;6294050;28;20063;-55
2023/05/31 08:35:24;;;;;;;21.40;6.67;;;;;;;;;;6296118;28;20692;-57
2023/05/31 08:38:28;;;;;;;17.07;6.13;;;;;;;;;;6297456;28;20041;-55
2023/05/31 08:41:35;;;;;;;18.67;5.68;;;;;;;;;;6300188;28;20063;-59
2023/05/31 08:44:36;;;;;;;17.60;5.95;;;;;;;;;;6289677;28;20047;-53
2023/05/31 08:47:45;;;;;;;18.80;6.05;;;;;;;;;;6278558;28;20345;-52
2023/05/31 08:50:47;;;;;;;19.77;6.03;;;;;;;;;;6296401;28;20331;-58
2023/05/31 08:53:48;;;;;;;16.90;6.10;;;;;;;;;;6296857;28;20048;-53
2023/05/31 08:56:50;;;;;;;15.25;6.35;;;;;;;;;;6297457;28;20535;-52
2023/05/31 08:59:51;;;;;;;;;;;;;;;;;;6297791;28;20093;-51
2023/05/31 09:02:53;;;;;;;16.80;5.75;;;;;;;;;;6296498;28;19942;-56
2023/05/31 09:05:56;;;;;;;16.17;5.10;;;;;;;;;;6294170;28;20495;-59
2023/05/31 09:08:57;;;;;;;12.98;5.45;;;;;;;;;;6292677;28;20127;-53
2023/05/31 09:11:57;;;;;;;14.50;6.20;;;;;;;;;;6297238;28;20048;-51
2023/05/31 09:14:59;;;;;;;14.40;5.63;;;;;;;;;;6295188;28;20965;-58
2023/05/31 09:18:21;;;;;;;17.13;6.47;;;;;;;;;;6297388;28;20518;-55
2023/05/31 09:21:22;;;;;;;19.42;6.53;;;;;;;;;;6296102;28;20479;-59
2023/05/31 09:24:23;;;;;;;19.03;6.77;;;;;;;;;;6294001;28;20055;-54
2023/05/31 09:27:25;;;;;;;17.83;7.13;;;;;;;;;;6292322;28;20048;-56
2023/05/31 09:30:26;;;;;;;18.27;7.28;;;;;;;;;;6292445;28;20664;-56
2023/05/31 09:33:40;;;;;;;17.03;6.50;;;;;;;;;;6294665;28;20048;-59
2023/05/31 09:36:42;;;;;;;14.63;5.28;;;;;;;;;;6293796;28;20040;-54
2023/05/31 09:39:54;;;;;;;14.02;5.50;;;;;;;;;;6294952;28;20048;-60
2023/05/31 09:42:55;;;;;;;14.27;5.50;;;;;;;;;;6293812;28;20663;-50
2023/05/31 09:45:56;;;;;;;16.08;5.40;;;;;;;;;;6293828;28;20221;-60
2023/05/31 09:49:01;;;;;;;15.23;5.80;;;;;;;;;;6281301;28;20048;-56
2023/05/31 09:52:02;;;;;;;13.80;5.65;;;;;;;;;;6294511;28;20520;-55
2023/05/31 09:55:08;;;;;;;14.13;6.10;;;;;;;;;;6272477;28;20495;-52
2023/05/31 09:58:09;;;;;;;21.48;7.22;;;;;;;;;;6296028;28;20040;-59
2023/05/31 10:01:10;;;;;;;17.80;6.53;;;;;;;;;;6289125;28;20044;-50
2023/05/31 10:04:12;;;;;;;19.33;6.77;;;;;;;;;;6294330;28;20434;-57
2023/05/31 10:07:13;;;;;;;15.57;6.22;;;;;;;;;;6289407;28;20479;-57
2023/05/31 10:10:14;;;;;;;17.30;7.05;;;;;;;;;;6290779;28;20052;-52
2023/05/31 10:13:17;;;;;;;17.40;6.82;;;;;;;;;;6294709;28;20067;-56
2023/05/31 10:16:21;;;;;;;18.20;6.57;;;;;;;;;;6293736;28;20039;-54
2023/05/31 10:19:34;;;;;;;16.60;6.53;;;;;;;;;;6294506;28;20040;-55
2023/05/31 10:22:38;;;;;;;17.63;6.90;;;;;;;;;;6295811;28;20442;-55
2023/05/31 10:25:46;;;;;;;15.23;6.47;;;;;;;;;;6293055;28;20420;-48
2023/05/31 10:29:05;;;;;;;16.38;7.03;;;;;;;;;;6292142;28;20047;-54
2023/05/31 10:32:13;;;;;;;20.42;6.60;;;;;;;;;;6293963;28;20048;-55
2023/05/31 10:35:15;;;;;;;22.00;7.07;;;;;;;;;;6294871;28;20047;-48
2023/05/31 10:38:17;;;;;;;;;;;;;;;;;;6294697;28;20056;-52
2023/05/31 10:41:22;;;;;;;14.57;6.30;;;;;;;;;;6291742;28;19928;-56
2023/05/31 10:44:33;;;;;;;18.52;6.18;;;;;;;;;;6292210;28;20142;-53
2023/05/31 10:47:40;;;;;;;;;;;;;;;;;;6293595;28;20534;-50
2023/05/31 10:51:01;;;;;;;14.40;6.38;;;;;;;;;;6291910;28;19924;-53
2023/05/31 10:54:01;;;;;;;16.60;6.03;;;;;;;;;;6293265;28;20115;-48
2023/05/31 10:57:04;;;;;;;18.43;6.27;;;;;;;;;;6292945;28;20051;-54
2023/05/31 11:00:06;;;;;;;17.85;6.15;;;;;;;;;;6294214;28;20039;-49
2023/05/31 11:03:07;;;;;;;17.40;6.20;;;;;;;;;;6292840;28;20320;-49
2023/05/31 11:06:11;;;;;;;23.15;7.30;;;;;;;;;;6277581;28;20504;-48
2023/05/31 11:09:15;;;;;;;20.02;6.57;;;;;;;;;;6289506;28;20052;-47
2023/05/31 11:12:31;;;;;;;15.77;6.25;;;;;;;;;;6291625;28;20048;-57
2023/05/31 11:15:39;;;;;;;14.65;6.32;;;;;;;;;;6289040;28;20109;-48
2023/05/31 11:18:41;;;;;;;20.23;7.13;;;;;;;;;;6295446;28;20489;-50
2023/05/31 11:21:45;;;;;;;17.15;6.45;;;;;;;;;;6290951;28;20515;-51
2023/05/31 11:24:50;;;;;;;14.98;6.65;;;;;;;;;;6292640;28;20060;-50
2023/05/31 11:28:05;;;;;;;18.67;6.75;;;;;;;;;;6295739;28;20050;-50
2023/05/31 11:31:06;;;;;;;15.25;6.40;;;;;;;;;;6305843;28;20044;-49
2023/05/31 11:34:24;;;;;;;18.47;6.53;;;;;;;;;;6310975;28;20446;-47
2023/05/31 11:37:29;;;;;;;20.80;7.30;;;;;;;;;;6306837;28;20395;-49
2023/05/31 11:40:31;;;;;;;16.35;6.40;;;;;;;;;;6310154;28;20059;-50
2023/05/31 11:43:32;;;;;;;16.02;5.40;;;;;;;;;;6314246;28;20051;-50
2023/05/31 11:46:35;;;;;;;15.10;5.80;;;;;;;;;;6311384;28;20559;-49
2023/05/31 11:49:36;;;;;;;17.40;6.88;;;;;;;;;;6311199;28;20560;-48
2023/05/31 11:52:39;;;;;;;14.57;6.10;;;;;;;;;;6309389;28;20040;-49
2023/05/31 11:55:47;;;;;;;23.23;6.72;;;;;;;;;;6316279;28;20299;-53
2023/05/31 11:58:47;;;;;;;17.45;6.50;;;;;;;;;;6309628;28;20044;-50
2023/05/31 12:01:48;;;;;;;16.33;6.23;;;;;;;;;;6310748;28;20398;-49
2023/05/31 12:04:50;;;;;;;13.70;6.03;;;;;;;;;;6311241;28;20305;-51
2023/05/31 12:07:55;;;;;;;;;;;;;;;;;;6312656;28;20048;-50
2023/05/31 12:11:02;;;;;;;15.25;6.40;;;;;;;;;;6311609;28;19919;-52
2023/05/31 12:14:03;;;;;;;18.35;6.18;;;;;;;;;;6313017;28;20067;-48
2023/05/31 12:17:05;;;;;;;17.03;6.70;;;;;;;;;;6311480;28;20502;-51
2023/05/31 12:20:06;;;;;;;15.38;6.35;;;;;;;;;;6310071;28;20479;-49
2023/05/31 12:23:14;;;;;;;17.17;6.33;;;;;;;;;;6311627;28;21309;-51
2023/05/31 12:26:15;;;;;;;15.80;6.13;;;;;;;;;;6310522;28;20058;-47
2023/05/31 12:29:16;;;;;;;16.00;6.00;;;;;;;;;;6309505;28;20052;-48
2023/05/31 12:32:20;;;;;;;15.25;6.93;;;;;;;;;;6308591;28;20056;-51
2023/05/31 12:35:20;;;;;;;15.52;5.93;;;;;;;;;;6544543;22;20488;-51
2023/05/31 12:38:27;;;;;;;20.90;7.60;;;;;;;;;;6310705;28;20052;-49
2023/05/31 12:41:27;;;;;;;16.60;6.28;;;;;;;;;;6312790;28;20131;-48
2023/05/31 12:44:30;;;;;;;16.17;6.03;;;;;;;;;;6311005;28;20051;-50
2023/05/31 12:47:30;;;;;;;20.63;6.32;;;;;;;;;;6311985;28;20040;-52
2023/05/31 12:50:31;;;;;;;12.63;6.07;;;;;;;;;;6311809;28;20083;-52
2023/05/31 12:53:32;;;;;;;20.97;7.10;;;;;;;;;;6317588;28;20688;-51
2023/05/31 12:56:32;;;;;;;18.53;6.33;;;;;;;;;;6310905;28;20116;-52
2023/05/31 12:59:33;;;;;;;12.93;5.80;;;;;;;;;;6310015;28;20040;-49
2023/05/31 13:02:34;;;;;;;14.10;6.40;;;;;;;;;;6309128;28;20051;-48
2023/05/31 13:05:34;;;;;;;17.77;6.50;;;;;;;;;;6309541;28;20055;-50
2023/05/31 13:08:35;;;;;;;14.70;5.77;;;;;;;;;;6310523;28;20930;-50
2023/05/31 13:11:37;;;;;;;18.67;6.53;;;;;;;;;;6311991;28;20246;-49
2023/05/31 13:14:38;;;;;;;15.45;5.78;;;;;;;;;;6311496;28;20052;-49
2023/05/31 13:17:38;;;;;;;14.67;5.43;;;;;;;;;;6308684;28;20136;-49
2023/05/31 13:20:39;;;;;;;12.83;5.47;;;;;;;;;;6309516;28;20313;-48
2023/05/31 13:23:40;;;;;;;16.50;6.00;;;;;;;;;;6309785;28;20123;-50
2023/05/31 13:26:41;;;;;;;17.10;5.93;;;;;;;;;;6308718;28;20047;-49
2023/05/31 13:29:41;;;;;;;17.53;6.30;;;;;;;;;;6311673;28;20040;-49
2023/05/31 13:32:43;;;;;;;13.98;5.63;;;;;;;;;;6314104;28;20063;-52
2023/05/31 13:35:43;;;;;;;13.73;5.15;;;;;;;;;;6308866;28;20047;-48
2023/05/31 13:38:44;;;;;;;13.47;5.03;;;;;;;;;;6310636;28;20508;-51
2023/05/31 13:41:46;;;;;;;10.25;4.60;;;;;;;;;;6310971;28;20490;-52
2023/05/31 13:44:46;;;;;;;10.80;4.95;;;;;;;;;;6314408;28;20044;-49
2023/05/31 13:47:47;;;;;;;13.63;5.37;;;;;;;;;;6311531;28;20141;-52
2023/05/31 13:50:48;;;;;;;12.63;5.07;;;;;;;;;;6312219;28;20050;-49
2023/05/31 13:53:49;;;;;;;13.10;5.00;;;;;;;;;;6308514;28;20304;-49
2023/05/31 13:56:49;;;;;;;13.25;4.55;;;;;;;;;;6307635;28;20056;-52
2023/05/31 13:59:50;;;;;;;12.50;4.40;;;;;;;;;;6310744;28;20126;-48
2023/05/31 14:02:54;;;;;;;16.50;4.60;;;;;;;;;;6307684;28;20039;-57
2023/05/31 14:05:54;;;;;;;14.80;5.55;;;;;;;;;;6281110;28;20068;-53
2023/05/31 14:08:55;;;;;;;15.13;4.97;;;;;;;;;;6287764;28;20517;-50
2023/05/31 14:11:58;;;;;;;13.07;4.73;;;;;;;;;;6279614;28;20058;-52
2023/05/31 14:14:58;;;;;;;12.10;4.53;;;;;;;;;;6277402;28;20144;-53
2023/05/31 14:18:00;;;;;;;15.10;4.53;;;;;;;;;;6282842;28;20246;-48
2023/05/31 14:21:01;;;;;;;12.40;4.47;;;;;;;;;;6280397;28;20438;-50
2023/05/31 14:24:03;;;;;;;10.37;4.30;;;;;;;;;;6279760;28;20048;-53
2023/05/31 14:27:05;;;;;;;12.10;4.47;;;;;;;;;;6275741;28;20053;-53
2023/05/31 14:30:07;;;;;;;9.35;4.20;;;;;;;;;;6279621;28;20541;-52
2023/05/31 14:33:07;;;;;;;15.80;4.50;;;;;;;;;;6283282;28;20076;-50
2023/05/31 14:36:08;;;;;;;12.33;4.30;;;;;;;;;;6277365;28;20498;-49
2023/05/31 14:39:09;;;;;;;12.40;4.63;;;;;;;;;;6280363;28;20040;-50
2023/05/31 14:42:09;;;;;;;12.07;5.87;;;;;;;;;;6280586;28;20047;-53
2023/05/31 14:45:10;;;;;;;15.30;5.27;;;;;;;;;;6280113;28;20036;-53
2023/05/31 14:48:10;;;;;;;10.07;4.50;;;;;;;;;;6279838;28;20059;-50
2023/05/31 14:51:11;;;;;;;10.67;4.23;;;;;;;;;;6282660;28;21015;-54
2023/05/31 14:54:12;;;;;;;13.23;4.30;;;;;;;;;;6282523;28;20063;-58
2023/05/31 14:57:12;;;;;;;13.67;4.60;;;;;;;;;;6277870;28;20049;-48
2023/05/31 15:00:14;;;;;;;14.47;4.60;;;;;;;;;;6280560;28;20048;-50
2023/05/31 15:03:15;;;;;;;8.55;4.45;;;;;;;;;;6282951;28;20135;-53
2023/05/31 15:06:15;;;;;;;10.13;4.50;;;;;;;;;;6277592;28;20482;-48
2023/05/31 15:09:16;;;;;;;13.27;4.70;;;;;;;;;;6289983;28;20052;-53
2023/05/31 15:12:17;;;;;;;13.60;5.10;;;;;;;;;;6302386;28;20054;-53
2023/05/31 15:15:17;;;;;;;7.93;4.23;;;;;;;;;;6298434;28;20297;-47
2023/05/31 15:18:18;;;;;;;10.90;4.50;;;;;;;;;;6291587;28;20124;-52
2023/05/31 15:21:19;;;;;;;13.57;4.47;;;;;;;;;;6289022;28;20454;-47
2023/05/31 15:24:19;;;;;;;8.90;4.20;;;;;;;;;;6289508;28;20391;-49
2023/05/31 15:27:20;;;;;;;12.73;4.90;;;;;;;;;;6299799;28;20043;-49
2023/05/31 15:30:20;;;;;;;11.23;4.20;;;;;;;;;;6301469;28;20547;-48
2023/05/31 15:33:21;;;;;;;10.80;4.13;;;;;;;;;;6300458;28;20054;-51
2023/05/31 15:36:22;;;;;;;11.03;4.00;;;;;;;;;;6288712;28;20775;-52
2023/05/31 15:39:23;;;;;;;10.77;4.35;;;;;;;;;;6299509;28;20048;-52
2023/05/31 15:42:25;;;;;;;10.73;4.67;;;;;;;;;;6301266;28;20044;-52
2023/05/31 15:45:25;;;;;;;10.63;4.32;;;;;;;;;;6298157;28;20055;-51
2023/05/31 15:48:26;;;;;;;10.77;4.63;;;;;;;;;;6298729;28;20079;-59
2023/05/31 15:51:26;;;;;;;11.37;4.40;;;;;;;;;;6300013;28;20047;-52
2023/05/31 15:54:27;;;;;;;11.40;4.70;;;;;;;;;;6299647;28;20332;-53
2023/05/31 15:57:28;;;;;;;12.77;4.37;;;;;;;;;;6300186;28;20060;-55
2023/05/31 16:00:28;;;;;;;11.07;4.50;;;;;;;;;;6298715;28;20124;-57
2023/05/31 16:03:30;;;;;;;9.57;4.73;;;;;;;;;;6302029;28;20568;-57
2023/05/31 16:06:31;;;;;;;13.00;4.30;;;;;;;;;;6299593;28;20900;-60
2023/05/31 16:09:32;;;;;;;11.02;4.30;;;;;;;;;;6299537;28;20059;-48
2023/05/31 16:12:32;;;;;;;12.43;4.23;;;;;;;;;;6296485;28;20475;-48
2023/05/31 16:15:34;;;;;;;13.20;4.90;;;;;;;;;;6292706;28;20045;-50
2023/05/31 16:18:35;;;;;;;13.73;4.57;;;;;;;;;;6300952;28;20289;-47
2023/05/31 16:21:36;;;;;;;9.15;4.05;;;;;;;;;;6306757;28;20044;-50
2023/05/31 16:24:36;;;;;;;12.03;4.50;;;;;;;;;;6305426;28;20479;-48
2023/05/31 16:27:37;;;;;;;13.65;4.65;;;;;;;;;;6298439;28;20044;-48
2023/05/31 16:30:38;;;;;;;10.93;4.60;;;;;;;;;;6297026;28;20072;-55
2023/05/31 16:33:38;;;;;;;14.25;4.72;;;;;;;;;;6303244;28;20045;-48
2023/05/31 16:36:39;;;;;;;11.97;4.43;;;;;;;;;;6301602;28;20175;-51
2023/05/31 16:39:40;;;;;;;12.02;4.82;;;;;;;;;;6294288;28;20059;-49
2023/05/31 16:42:41;;;;;;;14.00;5.00;;;;;;;;;;6297393;28;20180;-48
2023/05/31 16:45:41;;;;;;;11.82;4.85;;;;;;;;;;6292000;28;20518;-48
2023/05/31 16:48:42;;;;;;;12.10;4.93;;;;;;;;;;6287270;28;20128;-50
2023/05/31 16:51:43;;;;;;;13.87;5.17;;;;;;;;;;6282623;28;20513;-53
2023/05/31 16:54:43;;;;;;;14.37;5.83;;;;;;;;;;6284752;28;20096;-49
2023/05/31 16:57:44;;;;;;;15.13;5.20;;;;;;;;;;6269890;28;20937;-53
2023/05/31 17:00:45;;;;;;;12.73;4.50;;;;;;;;;;6286349;28;20377;-49
2023/05/31 17:03:47;;;;;;;13.40;4.70;;;;;;;;;;6286132;28;20135;-50
2023/05/31 17:06:47;;;;;;;9.88;4.75;;;;;;;;;;6282103;28;20040;-49
2023/05/31 17:09:48;;;;;;;12.47;4.30;;;;;;;;;;6283997;28;20052;-58
2023/05/31 17:12:48;;;;;;;10.63;4.80;;;;;;;;;;6284055;28;20044;-48
2023/05/31 17:15:49;;;;;;;13.83;5.00;;;;;;;;;;6272397;28;20043;-53
2023/05/31 17:18:51;;;;;;;11.13;4.83;;;;;;;;;;6283774;28;20285;-55
2023/05/31 17:21:53;;;;;;;12.18;5.15;;;;;;;;;;6283226;28;20090;-47
2023/05/31 17:24:53;;;;;;;12.00;5.22;;;;;;;;;;6284650;28;21076;-58
2023/05/31 17:27:54;;;;;;;15.10;5.23;;;;;;;;;;6282206;28;20056;-48
2023/05/31 17:30:55;;;;;;;13.57;5.27;;;;;;;;;;6283653;28;20118;-49
2023/05/31 17:33:56;;;;;;;15.98;5.95;;;;;;;;;;6282869;28;20202;-55
2023/05/31 17:36:56;;;;;;;17.23;5.77;;;;;;;;;;6282951;28;20064;-56
2023/05/31 17:39:57;;;;;;;15.00;5.73;;;;;;;;;;6282584;28;20297;-54
2023/05/31 17:42:58;;;;;;;16.90;6.33;;;;;;;;;;6283233;28;20045;-48
2023/05/31 17:45:58;;;;;;;15.93;5.80;;;;;;;;;;6282935;28;20044;-50
2023/05/31 17:48:59;;;;;;;11.07;5.43;;;;;;;;;;6282227;28;20054;-53
2023/05/31 17:52:00;;;;;;;15.57;6.27;;;;;;;;;;6283501;28;20082;-48